Time;durP1;ratioP1;P1;durP2;ratioP2;P2;SDS_P1;SDS_P2;PMS_P1;PMS_P2;Temp;Humidity;BMP_temperature;BMP_pressure;BME280_temperature;BME280_humidity;BME280_pressure;Samples;Min_cycle;Max_cycle;Signal;HPM_P1;HPM_P2
2022/10/03 00:04:52;;;;;;;2.78;0.82;;;;;;;5.55;87.91;100436.53;10459135;28;20038;-78
2022/10/03 00:09:57;;;;;;;2.25;0.98;;;;;;;5.51;87.35;100417.19;10455926;28;20057;-78
2022/10/03 00:15:10;;;;;;;1.67;1.30;;;;;;;5.59;87.67;100424.09;10442046;28;20033;-78
2022/10/03 00:20:52;;;;;;;1.00;0.70;;;;;;;5.60;87.41;100423.84;10461728;28;20078;-79
2022/10/03 00:26:29;;;;;;;1.05;0.80;;;;;;;5.48;87.12;100419.59;10522737;28;20049;-79
2022/10/03 00:31:43;;;;;;;1.10;0.70;;;;;;;5.49;87.10;100432.94;10489902;28;20045;-79
2022/10/03 00:37:26;;;;;;;0.57;0.38;;;;;;;5.45;87.04;100426.38;10474213;28;20056;-79
2022/10/03 00:42:40;;;;;;;1.10;0.75;;;;;;;5.46;87.67;100428.00;10449466;28;20053;-79
2022/10/03 00:48:05;;;;;;;0.55;0.55;;;;;;;5.56;87.58;100411.81;10444531;28;20025;-78
2022/10/03 00:53:27;;;;;;;0.77;0.60;;;;;;;5.48;87.20;100423.13;10444227;28;20053;-78
2022/10/03 00:58:54;;;;;;;0.65;0.55;;;;;;;5.50;87.37;100415.53;10443047;28;20399;-78
2022/10/03 01:04:33;;;;;;;1.58;0.30;;;;;;;5.38;87.44;100412.97;10469517;28;20076;-78
2022/10/03 01:09:45;;;;;;;1.15;0.93;;;;;;;5.37;87.72;100405.03;10489657;28;20049;-79
2022/10/03 01:15:09;;;;;;;0.17;0.17;;;;;;;5.36;87.76;100403.38;10427388;28;20053;-79
2022/10/03 01:20:46;;;;;;;2.30;1.20;;;;;;;5.39;87.69;100401.00;10465803;28;20046;-79
2022/10/03 01:25:52;;;;;;;1.13;1.00;;;;;;;5.45;87.93;100396.44;10473659;28;20097;-79
2022/10/03 01:31:01;;;;;;;1.10;1.02;;;;;;;5.40;87.70;100397.19;10441357;27;20040;-78
2022/10/03 01:36:21;;;;;;;0.77;0.70;;;;;;;5.43;88.14;100393.16;10439078;28;20053;-80
2022/10/03 01:41:57;;;;;;;0.95;0.45;;;;;;;5.48;88.30;100390.47;10460807;27;20041;-78
2022/10/03 01:47:14;;;;;;;0.40;0.30;;;;;;;5.48;87.40;100389.66;10466468;28;20052;-78
2022/10/03 01:52:48;;;;;;;1.05;0.82;;;;;;;5.56;88.03;100395.50;10462931;28;20037;-78
2022/10/03 01:58:00;;;;;;;0.50;0.50;;;;;;;5.57;88.15;100393.59;10481754;28;20431;-78
2022/10/03 02:03:28;;;;;;;1.23;0.57;;;;;;;5.51;88.15;100394.59;10451400;28;20052;-79
2022/10/03 02:09:13;;;;;;;0.43;0.40;;;;;;;5.44;88.33;100392.06;10470257;28;20048;-78
2022/10/03 02:14:23;;;;;;;0.77;0.43;;;;;;;5.58;88.55;100384.34;10470086;28;20425;-78
2022/10/03 02:19:28;;;;;;;0.40;0.30;;;;;;;5.62;88.16;100394.47;10458869;28;20049;-78
2022/10/03 02:24:45;;;;;;;0.82;0.63;;;;;;;5.62;88.50;100393.66;10482123;28;20071;-79
2022/10/03 02:29:51;;;;;;;0.40;0.40;;;;;;;5.57;87.77;100380.81;10464839;28;20396;-79
2022/10/03 02:35:38;;;;;;;0.75;0.75;;;;;;;5.54;88.98;100391.34;10470118;28;20034;-79
2022/10/03 02:40:52;;;;;;;1.63;0.80;;;;;;;5.54;88.45;100381.28;10428896;28;20034;-79
2022/10/03 02:45:59;;;;;;;3.10;0.75;;;;;;;5.53;89.47;100382.38;10472789;28;20037;-79
2022/10/03 02:51:10;;;;;;;3.83;0.93;;;;;;;5.55;88.56;100382.94;10472543;28;20440;-80
2022/10/03 02:56:24;;;;;;;1.33;0.50;;;;;;;5.57;89.04;100388.97;10463545;28;20041;-79
2022/10/03 03:02:00;;;;;;;1.20;0.85;;;;;;;5.59;89.04;100386.81;10458328;27;20049;-79
2022/10/03 03:07:21;;;;;;;1.38;0.70;;;;;;;5.61;88.73;100394.72;10479707;27;20149;-79
2022/10/03 03:12:42;;;;;;;0.75;0.73;;;;;;;5.56;89.05;100394.66;10456801;28;20555;-79
2022/10/03 03:17:59;;;;;;;0.90;0.85;;;;;;;5.62;89.09;100385.47;10471744;28;20539;-79
2022/10/03 03:23:25;;;;;;;0.40;0.40;;;;;;;5.77;89.67;100395.72;10472154;28;20533;-79
2022/10/03 03:28:59;;;;;;;0.75;0.60;;;;;;;5.77;89.60;100390.28;10457492;28;20041;-79
2022/10/03 03:34:08;;;;;;;2.10;1.23;;;;;;;5.71;89.44;100392.09;10472867;27;20535;-79
2022/10/03 03:39:42;;;;;;;0.77;0.57;;;;;;;5.69;89.68;100388.81;10469463;27;20057;-80
2022/10/03 03:45:01;;;;;;;2.35;1.23;;;;;;;5.67;89.99;100391.78;10473486;27;20052;-79
2022/10/03 03:50:42;;;;;;;2.13;0.63;;;;;;;5.76;89.62;100378.56;10457953;28;20048;-79
2022/10/03 03:56:10;;;;;;;0.82;0.82;;;;;;;5.79;90.03;100363.63;10474267;28;20055;-79
2022/10/03 04:01:42;;;;;;;1.30;1.08;;;;;;;5.81;90.59;100359.56;10447663;28;20395;-79
2022/10/03 04:07:24;;;;;;;0.90;0.77;;;;;;;5.78;90.58;100356.53;10471829;27;20064;-79
2022/10/03 04:12:47;;;;;;;0.80;0.80;;;;;;;5.70;90.53;100355.88;10441297;28;20052;-78
2022/10/03 04:23:59;;;;;;;1.38;0.93;;;;;;;5.67;90.70;100342.78;10449398;28;20052;-78
2022/10/03 04:29:23;;;;;;;2.72;1.10;;;;;;;5.67;91.02;100334.63;10434744;28;20076;-80
2022/10/03 04:34:33;;;;;;;2.25;0.90;;;;;;;5.73;92.19;100317.28;10434323;28;20045;-79
2022/10/03 04:39:44;;;;;;;6.18;1.40;;;;;;;5.82;92.31;100312.19;10452426;28;20197;-79
2022/10/03 04:45:00;;;;;;;0.77;0.68;;;;;;;5.97;92.42;100308.81;10437347;28;20038;-78
2022/10/03 04:50:11;;;;;;;0.95;0.93;;;;;;;6.01;91.84;100293.59;10447962;28;20145;-78
2022/10/03 04:55:50;;;;;;;0.93;0.75;;;;;;;6.07;91.73;100294.44;10436437;28;20048;-79
2022/10/03 05:01:02;;;;;;;1.23;0.80;;;;;;;6.08;91.50;100288.75;10453400;28;20029;-79
2022/10/03 05:06:24;;;;;;;2.88;1.08;;;;;;;6.10;91.47;100281.16;10441912;28;20076;-79
2022/10/03 05:11:53;;;;;;;0.50;0.50;;;;;;;6.22;89.61;100284.50;10465689;27;20043;-78
2022/10/03 05:17:09;;;;;;;1.45;1.00;;;;;;;6.35;88.15;100277.78;10466637;28;20037;-78
2022/10/03 05:22:24;;;;;;;1.05;0.80;;;;;;;6.37;85.94;100278.34;10479304;28;20506;-78
2022/10/03 05:27:43;;;;;;;0.82;0.60;;;;;;;6.42;84.05;100283.00;10459238;27;20415;-78
2022/10/03 05:32:49;;;;;;;0.82;0.77;;;;;;;6.38;83.00;100277.25;10447920;28;20439;-78
2022/10/03 05:38:12;;;;;;;2.92;0.75;;;;;;;6.39;81.57;100278.06;10480885;28;20060;-78
2022/10/03 05:43:45;;;;;;;1.23;0.77;;;;;;;6.38;79.74;100263.63;10443871;28;20518;-79
2022/10/03 05:49:03;;;;;;;2.90;1.00;;;;;;;6.39;78.78;100248.91;10477734;27;20419;-78
2022/10/03 05:54:10;;;;;;;;;;;;;;;6.38;77.34;100249.19;10461066;27;20087;-78
2022/10/03 05:59:21;;;;;;;0.43;0.43;;;;;;;6.48;77.25;100243.81;10458759;28;19928;-78
2022/10/03 06:04:39;;;;;;;1.55;0.75;;;;;;;6.54;75.46;100232.66;10443748;28;20045;-78
2022/10/03 06:10:17;;;;;;;3.92;0.73;;;;;;;6.54;74.99;100227.19;10425762;28;20038;-78
2022/10/03 06:15:34;;;;;;;0.82;0.82;;;;;;;6.57;74.63;100247.66;10467687;28;20053;-78
2022/10/03 06:20:51;;;;;;;0.70;0.43;;;;;;;6.58;74.29;100241.94;10449136;28;20037;-79
2022/10/03 06:26:08;;;;;;;0.73;0.47;;;;;;;6.57;74.04;100240.31;10442707;28;20038;-78
2022/10/03 06:31:52;;;;;;;0.60;0.60;;;;;;;6.63;73.34;100227.53;10436599;28;20507;-78
2022/10/03 06:37:31;;;;;;;0.47;0.40;;;;;;;6.73;73.12;100240.38;10473257;28;20049;-78
2022/10/03 06:42:46;;;;;;;1.67;0.60;;;;;;;6.80;71.52;100219.16;10443746;28;20041;-79
2022/10/03 06:48:26;;;;;;;0.68;0.68;;;;;;;6.70;71.48;100230.81;10425950;28;20060;-78
2022/10/03 06:54:12;;;;;;;1.02;0.70;;;;;;;6.73;71.70;100204.94;10478067;28;20040;-78
2022/10/03 06:59:26;;;;;;;1.83;0.77;;;;;;;6.79;71.82;100215.63;10477439;28;20060;-79
2022/10/03 07:04:30;;;;;;;1.40;0.88;;;;;;;6.70;70.67;100235.47;10442512;28;20032;-78
2022/10/03 07:09:44;;;;;;;4.13;0.68;;;;;;;6.64;69.97;100215.53;10440967;28;20530;-78
2022/10/03 07:15:21;;;;;;;1.63;0.50;;;;;;;6.59;70.79;100207.31;10467190;28;20518;-78
2022/10/03 07:21:01;;;;;;;0.88;0.88;;;;;;;6.54;69.46;100215.47;10481335;28;20029;-78
2022/10/03 07:26:09;;;;;;;1.30;0.65;;;;;;;6.59;69.74;100201.88;10484304;28;20526;-79
2022/10/03 07:31:29;;;;;;;4.70;1.10;;;;;;;6.58;70.11;100227.50;10459305;28;20057;-78
2022/10/03 07:42:47;;;;;;;3.40;0.82;;;;;;;6.53;71.13;100231.00;10473307;28;20033;-78
2022/10/03 07:48:03;;;;;;;1.75;0.20;;;;;;;6.51;70.90;100199.66;10447644;28;20045;-78
2022/10/03 07:53:20;;;;;;;1.05;0.80;;;;;;;6.50;71.98;100208.94;10423099;28;20057;-79
2022/10/03 07:58:36;;;;;;;0.73;0.73;;;;;;;6.49;73.19;100199.09;10479924;28;20037;-78
2022/10/03 08:03:53;;;;;;;0.98;0.73;;;;;;;6.48;73.20;100254.72;10472139;28;20033;-78
2022/10/03 08:09:02;;;;;;;1.33;0.60;;;;;;;6.50;74.07;100189.84;10439390;28;20495;-78
2022/10/03 08:14:32;;;;;;;1.30;0.50;;;;;;;6.54;73.93;100183.59;10406194;28;20056;-78
2022/10/03 08:20:12;;;;;;;1.20;0.45;;;;;;;6.59;73.78;100191.78;10440077;28;20037;-78
2022/10/03 08:25:38;;;;;;;0.80;0.22;;;;;;;6.60;74.11;100177.09;10478215;27;20042;-78
2022/10/03 08:31:01;;;;;;;1.10;0.60;;;;;;;6.63;74.13;100160.19;10459430;27;20045;-78
2022/10/03 08:36:15;;;;;;;2.17;0.82;;;;;;;6.60;74.41;100154.47;10439447;28;20060;-78
2022/10/03 08:41:58;;;;;;;1.45;0.60;;;;;;;6.60;74.69;100138.13;10475227;28;20045;-79
2022/10/03 08:47:09;;;;;;;1.15;0.60;;;;;;;6.62;74.11;100135.94;10480768;28;20053;-79
2022/10/03 08:52:31;;;;;;;0.47;0.30;;;;;;;6.66;74.22;100147.94;10480315;28;20041;-81
2022/10/03 08:57:48;;;;;;;0.20;0.20;;;;;;;6.68;74.37;100136.75;10457064;28;20048;-80
2022/10/03 09:03:15;;;;;;;0.20;0.20;;;;;;;6.70;73.65;100116.31;10475498;28;20606;-80
2022/10/03 09:08:58;;;;;;;1.55;0.57;;;;;;;6.76;73.52;100115.22;10456934;28;20033;-80
2022/10/03 09:14:10;;;;;;;0.20;0.20;;;;;;;6.80;73.53;100107.34;10446936;28;20044;-81
2022/10/03 09:19:21;;;;;;;0.38;0.38;;;;;;;6.83;73.45;100112.25;10445774;28;20242;-80
2022/10/03 09:25:04;;;;;;;0.30;0.22;;;;;;;6.83;74.15;100077.63;10479000;28;20048;-80
2022/10/03 09:30:24;;;;;;;0.90;0.73;;;;;;;6.86;74.21;100059.91;10478364;28;20529;-80
2022/10/03 09:35:50;;;;;;;0.63;0.60;;;;;;;6.85;74.17;100061.81;10522208;28;20193;-81
2022/10/03 09:41:30;;;;;;;0.60;0.45;;;;;;;6.89;73.98;100059.34;10480309;28;20048;-80
2022/10/03 09:47:21;;;;;;;1.13;0.70;;;;;;;6.93;73.78;100057.72;10444381;28;20045;-81
2022/10/03 09:52:28;;;;;;;2.10;0.50;;;;;;;6.91;74.85;100046.25;10451212;28;20044;-81
2022/10/03 09:58:00;;;;;;;0.35;0.35;;;;;;;6.91;74.72;100088.00;10500585;27;20045;-82
2022/10/03 10:03:27;;;;;;;1.35;0.43;;;;;;;6.92;74.16;100028.81;10501665;28;20430;-83
2022/10/03 10:08:41;;;;;;;0.52;0.52;;;;;;;6.90;74.88;100028.28;10469385;28;20036;-81
2022/10/03 10:14:03;;;;;;;0.30;0.30;;;;;;;6.87;75.77;100023.38;10489144;28;20059;-83
2022/10/03 10:19:26;;;;;;;1.20;0.50;;;;;;;6.85;75.81;100029.09;10623070;27;20506;-82
2022/10/03 10:24:48;;;;;;;0.80;0.65;;;;;;;6.83;75.79;100012.19;10431325;28;20061;-80
2022/10/03 10:30:15;;;;;;;2.97;1.00;;;;;;;6.84;76.48;100023.91;10436805;28;20040;-84
2022/10/03 10:35:27;;;;;;;0.35;0.35;;;;;;;6.82;76.42;100046.00;10466402;28;20061;-84
2022/10/03 10:41:07;;;;;;;0.28;0.28;;;;;;;6.83;76.31;100003.19;10446027;28;20038;-81
2022/10/03 10:46:52;;;;;;;1.30;0.38;;;;;;;6.85;76.41;100001.00;10442099;28;20037;-83
2022/10/03 10:52:28;;;;;;;0.50;0.30;;;;;;;6.85;76.75;99982.72;10408352;28;20041;-79
2022/10/03 10:58:04;;;;;;;1.25;0.60;;;;;;;6.85;76.44;99980.00;10442817;28;20042;-79
2022/10/03 11:03:37;;;;;;;0.57;0.43;;;;;;;6.87;76.70;99975.09;10455950;28;20045;-79
2022/10/03 11:08:59;;;;;;;0.77;0.32;;;;;;;6.90;76.71;99963.63;10457394;27;20044;-79
2022/10/03 11:14:27;;;;;;;3.75;0.68;;;;;;;6.91;75.90;99959.00;10458943;28;20052;-83
2022/10/03 11:20:14;;;;;;;0.20;0.20;;;;;;;6.93;75.72;99949.44;10491853;28;20041;-85
2022/10/03 11:25:40;;;;;;;0.67;0.67;;;;;;;6.95;75.75;99925.47;10485498;28;20047;-83
2022/10/03 11:30:51;;;;;;;1.85;1.13;;;;;;;6.98;76.57;99915.09;10455803;28;20064;-86
2022/10/03 11:36:16;;;;;;;0.30;0.28;;;;;;;7.01;76.28;99920.00;10478183;27;20033;-88
2022/10/03 11:41:44;;;;;;;0.50;0.45;;;;;;;7.01;75.82;99893.53;10456297;27;20395;-86
2022/10/03 11:47:07;;;;;;;1.33;0.70;;;;;;;7.03;75.13;99882.34;10464583;28;20044;-86
2022/10/03 11:52:54;;;;;;;1.20;0.75;;;;;;;7.04;74.61;99892.16;10476724;28;20037;-86
2022/10/03 11:58:03;;;;;;;3.55;0.88;;;;;;;7.06;74.80;99858.03;10440862;28;20451;-86
2022/10/03 12:03:26;;;;;;;0.70;0.63;;;;;;;7.10;74.50;99863.75;10440705;28;20048;-86
2022/10/03 12:08:53;;;;;;;0.50;0.50;;;;;;;7.10;73.74;99852.84;10422685;28;20042;-85
2022/10/03 12:14:25;;;;;;;1.55;0.85;;;;;;;7.12;73.24;99854.22;10444155;28;20057;-85
2022/10/03 12:20:01;;;;;;;1.02;0.65;;;;;;;7.14;73.17;99862.13;10509960;28;20500;-85
2022/10/03 12:25:15;;;;;;;0.80;0.77;;;;;;;7.16;74.01;99893.50;10448164;28;20060;-86
2022/10/03 12:30:18;;;;;;;0.88;0.70;;;;;;;7.17;73.92;99845.22;10440934;27;20287;-86
2022/10/03 12:35:32;;;;;;;3.17;0.88;;;;;;;7.18;73.31;99849.56;10507429;28;20052;-86
2022/10/03 12:40:40;;;;;;;1.10;0.63;;;;;;;7.13;73.37;99825.03;10439336;28;20040;-86
2022/10/03 12:46:24;;;;;;;0.77;0.77;;;;;;;7.08;74.39;99806.75;10439656;27;20048;-85
2022/10/03 12:51:46;;;;;;;1.08;0.60;;;;;;;7.03;75.36;99834.06;10482932;28;20420;-85
2022/10/03 12:56:52;;;;;;;2.70;0.47;;;;;;;6.98;75.39;99814.16;10461977;28;20515;-86
2022/10/03 13:02:14;;;;;;;0.35;0.32;;;;;;;6.91;75.91;99801.63;10469191;28;20061;-85
2022/10/03 13:07:31;;;;;;;0.70;0.70;;;;;;;6.88;76.83;99788.56;10478462;28;20037;-84
2022/10/03 13:13:21;;;;;;;0.60;0.60;;;;;;;6.84;77.43;99806.56;10461671;28;20048;-86
2022/10/03 13:18:29;;;;;;;0.63;0.47;;;;;;;6.78;77.99;99794.06;10441200;28;20045;-86
2022/10/03 13:23:42;;;;;;;0.70;0.50;;;;;;;6.75;78.81;99794.56;10438130;28;20045;-85
2022/10/03 13:29:12;;;;;;;0.47;0.47;;;;;;;6.69;79.52;99782.06;10439730;28;20037;-87
2022/10/03 13:34:18;;;;;;;0.30;0.30;;;;;;;6.64;79.81;99782.09;10456058;28;20415;-86
2022/10/03 13:39:35;;;;;;;0.32;0.32;;;;;;;6.60;80.54;99778.28;10478984;27;20048;-87
2022/10/03 13:44:49;;;;;;;0.80;0.73;;;;;;;6.55;81.31;99786.44;10469523;28;20052;-85
2022/10/03 13:49:52;;;;;;;0.95;0.70;;;;;;;6.48;82.51;99775.03;10470565;27;20041;-81
2022/10/03 13:54:57;;;;;;;1.60;0.32;;;;;;;6.43;83.12;99764.16;10479034;27;20045;-84
2022/10/03 14:00:11;;;;;;;0.40;0.40;;;;;;;6.34;83.79;99786.47;10492143;28;20047;-84
2022/10/03 14:05:41;;;;;;;0.80;0.80;;;;;;;6.30;83.72;99774.50;10474263;28;20037;-87
2022/10/03 14:11:02;;;;;;;1.10;0.68;;;;;;;6.25;85.28;99792.78;10503972;28;20041;-86
2022/10/03 14:16:19;;;;;;;2.63;0.60;;;;;;;6.18;85.72;99754.91;10498980;28;20032;-83
2022/10/03 14:21:29;;;;;;;0.38;0.30;;;;;;;6.14;86.48;99793.84;10478298;27;20056;-86
2022/10/03 14:26:52;;;;;;;0.55;0.20;;;;;;;6.09;86.76;99758.47;10484124;28;20144;-84
2022/10/03 14:32:24;;;;;;;1.55;0.80;;;;;;;6.05;87.26;99758.16;10524708;27;20041;-81
2022/10/03 14:37:45;;;;;;;0.30;0.20;;;;;;;6.00;87.60;99758.16;10436915;28;20517;-82
2022/10/03 14:42:56;;;;;;;4.85;0.55;;;;;;;5.96;88.40;99716.25;10497279;27;20040;-87
2022/10/03 14:48:04;;;;;;;0.40;0.40;;;;;;;5.93;89.32;99741.31;10481020;28;20049;-84
2022/10/03 14:53:23;;;;;;;0.30;0.30;;;;;;;5.86;90.42;99762.50;10508169;28;20052;-81
2022/10/03 14:58:34;;;;;;;0.20;0.20;;;;;;;5.78;90.63;99738.53;10431680;28;20037;-83
2022/10/03 15:04:33;;;;;;;0.80;0.70;;;;;;;5.70;91.56;99751.59;10498907;28;20566;-86
2022/10/03 15:09:39;;;;;;;0.40;0.40;;;;;;;5.62;92.58;99705.06;10510324;28;20056;-80
2022/10/03 15:14:52;;;;;;;0.80;0.80;;;;;;;5.58;93.25;99717.56;10450579;28;20067;-79
2022/10/03 15:19:56;;;;;;;1.02;0.47;;;;;;;5.53;93.63;99683.00;10467861;28;20463;-79
2022/10/03 15:25:04;;;;;;;2.22;1.13;;;;;;;5.48;94.43;99702.03;10499214;28;20057;-79
2022/10/03 15:30:32;;;;;;;0.50;0.50;;;;;;;5.44;95.62;99709.13;10438800;28;20044;-78
2022/10/03 15:35:40;;;;;;;0.55;0.55;;;;;;;5.43;96.80;99655.78;10465819;28;20086;-78
2022/10/03 15:41:16;;;;;;;1.83;1.02;;;;;;;5.40;97.06;99716.19;10466351;28;20049;-79
2022/10/03 15:46:23;;;;;;;4.55;0.80;;;;;;;5.40;97.90;99673.47;10473275;28;20044;-85
2022/10/03 15:51:27;;;;;;;0.55;0.50;;;;;;;5.39;98.15;99696.34;10511917;28;20409;-82
2022/10/03 15:56:41;;;;;;;0.95;0.60;;;;;;;5.36;98.46;99680.53;10527715;28;20532;-78
2022/10/03 16:01:46;;;;;;;0.20;0.20;;;;;;;5.36;98.68;99677.81;10456914;28;20049;-78
2022/10/03 16:07:06;;;;;;;0.30;0.28;;;;;;;5.36;99.13;99666.91;10457985;28;20064;-78
2022/10/03 16:12:34;;;;;;;0.40;0.40;;;;;;;5.34;99.28;99663.66;10467192;28;20052;-78
2022/10/03 16:17:55;;;;;;;0.38;0.38;;;;;;;5.36;99.38;99674.25;10486458;28;20045;-81
2022/10/03 16:22:59;;;;;;;0.52;0.43;;;;;;;5.34;99.84;99662.84;10476887;27;20041;-81
2022/10/03 16:28:04;;;;;;;1.65;0.47;;;;;;;5.37;99.95;99630.47;10453198;27;20037;-80
2022/10/03 16:33:18;;;;;;;0.30;0.30;;;;;;;5.36;99.77;99649.78;10471156;28;20060;-82
2022/10/03 16:38:43;;;;;;;1.60;0.50;;;;;;;5.35;99.97;99627.22;10481905;28;20429;-80
2022/10/03 16:44:32;;;;;;;0.50;0.50;;;;;;;5.38;99.92;99604.09;10480845;28;20056;-80
2022/10/03 16:55:17;;;;;;;0.20;0.20;;;;;;;5.39;100.00;99603.03;10479498;27;20047;-88
2022/10/03 17:00:29;;;;;;;0.40;0.40;;;;;;;5.39;100.00;99575.81;10490279;27;20073;-81
2022/10/03 17:05:39;;;;;;;0.65;0.45;;;;;;;5.39;99.97;99598.41;10450086;27;20033;-75
2022/10/03 17:10:43;;;;;;;0.38;0.38;;;;;;;5.40;100.00;99550.25;10465782;27;20041;-77
2022/10/03 17:15:51;;;;;;;0.55;0.40;;;;;;;5.39;100.00;99530.38;10447090;28;20044;-78
2022/10/03 17:21:13;;;;;;;1.33;0.30;;;;;;;5.40;100.00;99542.09;10466013;28;20049;-77
2022/10/03 17:26:27;;;;;;;1.77;0.60;;;;;;;5.41;100.00;99530.91;10452102;28;20042;-77
2022/10/03 17:31:33;;;;;;;0.55;0.43;;;;;;;5.42;100.00;99531.75;10470265;27;20506;-76
2022/10/03 17:37:23;;;;;;;1.55;0.50;;;;;;;5.42;100.00;99527.09;10465957;28;20056;-76
2022/10/03 17:42:43;;;;;;;1.38;0.40;;;;;;;5.43;100.00;99538.81;10526132;27;20049;-78
2022/10/03 17:48:18;;;;;;;1.52;0.60;;;;;;;5.42;100.00;99494.47;10474750;28;20041;-78
2022/10/03 17:53:29;;;;;;;0.20;0.20;;;;;;;5.42;100.00;99496.38;10450751;28;20415;-78
2022/10/03 17:58:32;;;;;;;0.50;0.40;;;;;;;5.43;100.00;99552.41;10446994;27;20037;-77
2022/10/03 18:03:47;;;;;;;0.47;0.40;;;;;;;5.44;100.00;99494.19;10488036;28;20041;-78
2022/10/03 18:08:55;;;;;;;0.50;0.50;;;;;;;5.43;100.00;99493.38;10482331;28;20064;-78
2022/10/03 18:14:26;;;;;;;9.70;0.88;;;;;;;5.43;100.00;99504.25;10492964;28;20052;-78
2022/10/03 18:19:44;;;;;;;0.30;0.22;;;;;;;5.44;100.00;99486.84;10479036;27;20532;-78
2022/10/03 18:30:48;;;;;;;2.65;0.20;;;;;;;5.47;100.00;99477.31;10460743;28;20041;-77
2022/10/03 18:35:51;;;;;;;1.88;0.43;;;;;;;5.45;100.00;99463.16;10472467;27;20033;-84
2022/10/03 18:40:56;;;;;;;0.30;0.30;;;;;;;5.44;100.00;99434.34;10519028;28;20048;-80
2022/10/03 18:46:13;;;;;;;0.22;0.22;;;;;;;5.43;100.00;99470.78;10489821;28;20540;-76
2022/10/03 18:51:28;;;;;;;4.18;1.20;;;;;;;5.43;100.00;99438.16;10468538;27;20031;-82
2022/10/03 18:56:31;;;;;;;0.60;0.28;;;;;;;5.43;100.00;99441.69;10464885;27;20037;-82
2022/10/03 19:01:57;;;;;;;2.05;0.50;;;;;;;5.44;100.00;99462.34;10485383;27;20509;-80
2022/10/03 19:07:01;;;;;;;0.50;0.50;;;;;;;5.44;100.00;99437.06;10446849;28;20514;-80
2022/10/03 19:12:09;;;;;;;0.85;0.50;;;;;;;5.45;100.00;99441.41;10465991;27;20048;-78
2022/10/03 19:17:17;;;;;;;;;;;;;;;5.45;100.00;99441.41;10488165;27;20053;-78
2022/10/03 19:22:31;;;;;;;0.45;0.10;;;;;;;5.48;100.00;99440.84;10463042;28;20009;-79
2022/10/03 19:27:56;;;;;;;0.52;0.32;;;;;;;5.51;100.00;99434.84;10470907;28;20042;-78
2022/10/03 19:33:05;;;;;;;0.75;0.40;;;;;;;5.51;100.00;99423.97;10475016;27;20040;-78
2022/10/03 19:38:23;;;;;;;0.55;0.38;;;;;;;5.52;100.00;99420.16;10504569;27;20410;-79
2022/10/03 19:43:40;;;;;;;1.25;0.30;;;;;;;5.53;100.00;99451.69;10429220;28;20041;-85
2022/10/03 19:48:48;;;;;;;0.30;0.30;;;;;;;5.55;100.00;99416.06;10447530;27;20036;-79
2022/10/03 19:53:51;;;;;;;;;;;;;;;5.55;100.00;99425.03;10436618;28;20045;-77
2022/10/03 19:59:06;;;;;;;1.30;0.20;;;;;;;5.58;100.00;99402.72;10426561;28;19920;-77
2022/10/03 20:04:09;;;;;;;0.20;0.20;;;;;;;5.59;100.00;99401.63;10420279;27;20407;-77
2022/10/03 20:09:30;;;;;;;0.20;0.20;;;;;;;5.61;100.00;99380.41;10453605;27;20064;-78
2022/10/03 20:14:34;;;;;;;0.25;0.25;;;;;;;5.63;100.00;99397.25;10417302;28;20065;-78
2022/10/03 20:20:00;;;;;;;0.32;0.28;;;;;;;5.66;100.00;99404.84;10436363;27;20060;-78
2022/10/03 20:25:20;;;;;;;0.68;0.22;;;;;;;5.67;100.00;99389.34;10420506;27;20048;-78
2022/10/03 20:30:38;;;;;;;0.40;0.30;;;;;;;5.70;100.00;99359.66;10450469;27;20057;-79
2022/10/03 20:35:40;;;;;;;0.68;0.50;;;;;;;5.71;100.00;99347.66;10425585;28;20044;-79
2022/10/03 20:40:46;;;;;;;1.30;0.40;;;;;;;5.73;100.00;99356.41;10435825;28;20045;-79
2022/10/03 20:46:17;;;;;;;1.17;0.32;;;;;;;5.75;100.00;99353.38;10421706;28;20057;-80
2022/10/03 20:51:22;;;;;;;0.20;0.10;;;;;;;5.78;100.00;99362.91;10431927;28;20044;-78
2022/10/03 20:56:29;;;;;;;0.70;0.30;;;;;;;5.81;100.00;99352.25;10435165;28;20036;-77
2022/10/03 21:01:33;;;;;;;0.30;0.20;;;;;;;5.82;100.00;99347.63;10444443;28;20053;-78
2022/10/03 21:06:51;;;;;;;1.35;0.00;;;;;;;5.85;100.00;99355.22;10421846;28;20048;-78
2022/10/03 21:11:53;;;;;;;0.77;0.30;;;;;;;5.89;100.00;99343.47;10446608;28;20052;-78
2022/10/03 21:16:56;;;;;;;2.25;0.30;;;;;;;5.93;100.00;99350.03;10421670;27;20038;-78
2022/10/03 21:22:00;;;;;;;0.10;0.10;;;;;;;5.97;100.00;99353.81;10423524;27;20045;-79
2022/10/03 21:27:11;;;;;;;0.10;0.10;;;;;;;6.00;100.00;99355.16;10415797;27;20065;-78
2022/10/03 21:32:37;;;;;;;0.50;0.20;;;;;;;6.03;100.00;99347.22;10460622;27;20045;-76
2022/10/03 21:38:01;;;;;;;0.00;0.00;;;;;;;6.08;100.00;99357.31;10427558;27;20717;-80
2022/10/03 21:43:22;;;;;;;0.20;0.20;;;;;;;6.11;100.00;99356.72;10435288;27;20045;-79
2022/10/03 21:48:47;;;;;;;0.10;0.10;;;;;;;6.15;100.00;99352.34;10439931;27;20049;-79
2022/10/03 21:54:01;;;;;;;0.05;0.05;;;;;;;6.17;100.00;99332.97;10448610;28;20053;-79
2022/10/03 21:59:16;;;;;;;0.20;0.20;;;;;;;6.22;100.00;99344.66;10424233;27;20517;-77
2022/10/03 22:04:30;;;;;;;0.10;0.08;;;;;;;6.24;100.00;99338.91;10466359;28;20041;-79
2022/10/03 22:09:33;;;;;;;0.00;0.00;;;;;;;6.27;100.00;99338.38;10458196;27;20528;-79
2022/10/03 22:14:41;;;;;;;0.00;0.00;;;;;;;6.32;100.00;99347.31;10479949;27;20044;-79
2022/10/03 22:19:47;;;;;;;0.00;0.00;;;;;;;6.36;100.00;99333.91;10480192;27;20033;-77
2022/10/03 22:24:53;;;;;;;0.08;0.00;;;;;;;6.39;100.00;99335.25;10499676;27;20048;-75
2022/10/03 22:30:20;;;;;;;0.30;0.10;;;;;;;6.44;100.00;99351.59;10476131;27;20041;-74
2022/10/03 22:35:52;;;;;;;0.50;0.20;;;;;;;6.46;100.00;99343.94;10462765;27;20064;-79
2022/10/03 22:41:00;;;;;;;0.52;0.00;;;;;;;6.49;100.00;99333.25;10486042;28;20051;-77
2022/10/03 22:46:10;;;;;;;0.22;0.00;;;;;;;6.53;100.00;99328.88;10472135;27;20045;-78
2022/10/03 22:51:14;;;;;;;0.00;0.00;;;;;;;6.58;100.00;99349.78;10480506;28;20526;-78
2022/10/03 22:56:41;;;;;;;0.08;0.08;;;;;;;6.62;100.00;99335.34;10483288;28;20060;-77
2022/10/03 23:01:45;;;;;;;0.10;0.10;;;;;;;6.64;100.00;99343.22;10462706;28;20041;-78
2022/10/03 23:07:01;;;;;;;0.00;0.00;;;;;;;6.68;100.00;99347.00;10482775;27;20040;-77
2022/10/03 23:12:09;;;;;;;0.00;0.00;;;;;;;6.71;100.00;99357.31;10461942;28;20049;-77
2022/10/03 23:17:45;;;;;;;0.08;0.08;;;;;;;6.75;100.00;99344.72;10445045;28;20056;-75
2022/10/03 23:22:59;;;;;;;0.43;0.00;;;;;;;6.79;100.00;99343.09;10492288;27;20519;-77
2022/10/03 23:28:21;;;;;;;0.15;0.15;;;;;;;6.82;100.00;99336.22;10428224;28;20037;-77
2022/10/03 23:39:03;;;;;;;0.10;0.10;;;;;;;6.89;100.00;99329.31;10455012;27;20052;-78
2022/10/03 23:44:26;;;;;;;0.65;0.10;;;;;;;6.91;100.00;99332.56;10494614;27;20502;-77
2022/10/03 23:49:28;;;;;;;0.43;0.40;;;;;;;6.98;100.00;99342.34;10504691;28;20036;-77
2022/10/03 23:54:31;;;;;;;0.30;0.30;;;;;;;7.01;100.00;99339.84;10520685;28;20053;-77
2022/10/03 23:59:35;;;;;;;0.32;0.10;;;;;;;7.05;100.00;99335.44;10480323;28;20507;-78
